Time;durP1;ratioP1;P1;durP2;ratioP2;P2;SDS_P1;SDS_P2;PMS_P1;PMS_P2;Temp;Humidity;BMP_temperature;BMP_pressure;BME280_temperature;BME280_humidity;BME280_pressure;Samples;Min_cycle;Max_cycle;Signal;HPM_P1;HPM_P2
2022/06/27 00:00:43;;;;;;;3.05;2.65;;;18.30;62.30;;;;;;7358007;19;20473;-61
2022/06/27 00:03:13;;;;;;;2.90;2.50;;;18.20;58.70;;;;;;7359674;19;20366;-61
2022/06/27 00:05:43;;;;;;;2.10;1.80;;;18.20;55.20;;;;;;7361914;19;20022;-61
2022/06/27 00:08:13;;;;;;;2.00;1.70;;;18.20;49.60;;;;;;7385124;19;20017;-61
2022/06/27 00:10:45;;;;;;;2.25;1.48;;;18.20;47.90;;;;;;7356792;19;20074;-61
2022/06/27 00:13:15;;;;;;;1.98;0.90;;;18.20;44.60;;;;;;7359732;19;20009;-61
2022/06/27 00:15:45;;;;;;;2.20;1.15;;;18.20;38.80;;;;;;7360547;19;20014;-59
2022/06/27 00:18:15;;;;;;;1.10;0.80;;;18.10;37.90;;;;;;7363294;19;20081;-61
2022/06/27 00:20:45;;;;;;;2.53;0.90;;;18.10;35.60;;;;;;7357113;19;20479;-61
2022/06/27 00:23:15;;;;;;;1.52;0.80;;;18.10;36.50;;;;;;7381543;19;20106;-62
2022/06/27 00:25:47;;;;;;;1.73;0.93;;;18.10;36.90;;;;;;7361595;19;20029;-62
2022/06/27 00:28:18;;;;;;;1.60;0.90;;;18.10;38.70;;;;;;7362390;19;20489;-60
2022/06/27 00:30:48;;;;;;;2.85;0.80;;;18.00;39.90;;;;;;7357110;19;20019;-60
2022/06/27 00:33:19;;;;;;;2.55;1.00;;;18.00;40.30;;;;;;7359615;19;20018;-61
2022/06/27 00:35:50;;;;;;;2.78;0.90;;;18.10;43.80;;;;;;7359750;19;20046;-61
2022/06/27 00:38:20;;;;;;;3.72;1.08;;;17.90;44.70;;;;;;7385014;19;20554;-60
2022/06/27 00:40:53;;;;;;;3.83;1.20;;;17.80;50.80;;;;;;7356203;19;20007;-60
2022/06/27 00:43:23;;;;;;;2.08;1.00;;;17.80;48.20;;;;;;7358861;19;20010;-60
2022/06/27 00:45:53;;;;;;;3.83;1.25;;;17.90;51.60;;;;;;7359154;19;20015;-61
2022/06/27 00:48:23;;;;;;;3.03;1.10;;;17.70;52.00;;;;;;7362273;19;20022;-62
2022/06/27 00:50:53;;;;;;;4.07;1.00;;;17.60;56.20;;;;;;7356040;19;20010;-60
2022/06/27 00:53:23;;;;;;;2.88;1.00;;;17.30;59.10;;;;;;7380324;19;20552;-60
2022/06/27 00:55:55;;;;;;;3.22;0.80;;;17.10;63.60;;;;;;7359289;19;20563;-61
2022/06/27 00:58:25;;;;;;;0.82;0.70;;;16.90;65.00;;;;;;7361487;19;20002;-60
2022/06/27 01:00:55;;;;;;;5.70;1.10;;;16.80;63.70;;;;;;7356446;19;20160;-60
2022/06/27 01:03:25;;;;;;;2.50;0.90;;;17.00;66.60;;;;;;7358468;19;20027;-60
2022/06/27 01:05:56;;;;;;;3.90;1.00;;;16.90;67.20;;;;;;7367388;19;20356;-61
2022/06/27 01:08:29;;;;;;;1.77;0.77;;;16.80;67.20;;;;;;7369628;19;20013;-61
2022/06/27 01:11:05;;;;;;;2.67;0.90;;;16.80;66.90;;;;;;7384889;19;20053;-60
2022/06/27 01:13:35;;;;;;;1.85;0.52;;;16.80;68.10;;;;;;7365052;19;20006;-60
2022/06/27 01:16:06;;;;;;;2.08;0.75;;;16.90;68.60;;;;;;7365955;19;20010;-60
2022/06/27 01:18:38;;;;;;;1.45;0.77;;;16.80;69.10;;;;;;7369050;19;20093;-60
2022/06/27 01:21:09;;;;;;;1.60;0.80;;;16.90;70.20;;;;;;7363265;19;20010;-61
2022/06/27 01:23:41;;;;;;;2.55;1.10;;;16.80;71.00;;;;;;7362378;19;20025;-61
2022/06/27 01:26:14;;;;;;;3.67;1.05;;;16.80;71.00;;;;;;7388719;19;20014;-60
2022/06/27 01:28:44;;;;;;;2.88;1.00;;;16.80;71.90;;;;;;7367319;19;20006;-60
2022/06/27 01:31:15;;;;;;;1.50;0.95;;;16.80;72.60;;;;;;7363115;19;20067;-61
2022/06/27 01:33:46;;;;;;;2.08;1.10;;;16.80;73.20;;;;;;7363302;19;20398;-61
2022/06/27 01:39:03;;;;;;;4.28;1.20;;;16.80;75.20;;;;;;7368770;19;20019;-61
2022/06/27 01:41:33;;;;;;;3.28;1.40;;;16.70;76.00;;;;;;7358208;19;20006;-61
2022/06/27 01:44:03;;;;;;;4.25;1.23;;;16.70;76.50;;;;;;7386986;19;20039;-61
2022/06/27 01:46:44;;;;;;;3.38;1.30;;;16.80;77.70;;;;;;7364840;19;20007;-61
2022/06/27 01:49:15;;;;;;;4.28;1.35;;;16.70;77.50;;;;;;7367257;19;20002;-61
2022/06/27 01:51:46;;;;;;;1.92;0.98;;;16.70;77.80;;;;;;7361580;19;20090;-59
2022/06/27 01:54:22;;;;;;;4.88;1.40;;;16.70;77.50;;;;;;7365297;19;20010;-59
2022/06/27 01:56:53;;;;;;;1.85;1.10;;;16.80;77.30;;;;;;7365016;19;20017;-59
2022/06/27 01:59:23;;;;;;;4.10;1.10;;;16.80;76.70;;;;;;7386115;19;20042;-59
2022/06/27 02:01:53;;;;;;;2.65;1.10;;;17.00;76.30;;;;;;7363188;19;20006;-59
2022/06/27 02:04:24;;;;;;;1.85;1.40;;;17.00;73.60;;;;;;7364946;19;20006;-59
2022/06/27 02:06:54;;;;;;;2.25;1.00;;;17.10;72.60;;;;;;7365324;19;20480;-60
2022/06/27 02:09:27;;;;;;;3.10;1.15;;;17.30;73.10;;;;;;7361923;19;20533;-60
2022/06/27 02:11:58;;;;;;;2.58;1.30;;;17.30;72.20;;;;;;7364305;19;20019;-60
2022/06/27 02:14:28;;;;;;;3.13;1.35;;;17.20;71.10;;;;;;7364919;19;20020;-60
2022/06/27 02:16:57;;;;;;;3.10;1.13;;;17.20;69.00;;;;;;7383291;19;20018;-60
2022/06/27 02:19:27;;;;;;;3.63;1.27;;;17.40;72.60;;;;;;7364389;19;20641;-60
2022/06/27 02:21:57;;;;;;;3.80;1.60;;;17.40;72.70;;;;;;7363948;19;20018;-60
2022/06/27 02:24:30;;;;;;;4.07;1.30;;;17.40;73.60;;;;;;7362166;19;20473;-60
2022/06/27 02:27:00;;;;;;;2.38;1.60;;;17.30;72.40;;;;;;7365675;19;20021;-60
2022/06/27 02:29:29;;;;;;;3.10;1.52;;;17.30;73.10;;;;;;7365018;19;20469;-61
2022/06/27 02:32:01;;;;;;;2.92;1.38;;;17.30;72.60;;;;;;7384569;19;20006;-60
2022/06/27 02:34:31;;;;;;;2.95;1.50;;;17.30;72.90;;;;;;7362290;19;20649;-60
2022/06/27 02:37:02;;;;;;;3.22;1.77;;;17.30;72.90;;;;;;7363153;19;20011;-60
2022/06/27 02:39:38;;;;;;;4.55;1.45;;;17.20;72.50;;;;;;7365262;19;20010;-60
2022/06/27 02:42:11;;;;;;;4.18;1.75;;;17.20;73.60;;;;;;7363574;19;20022;-60
2022/06/27 02:44:42;;;;;;;3.67;1.53;;;17.30;74.10;;;;;;7362547;19;20620;-60
2022/06/27 02:47:12;;;;;;;3.97;1.98;;;17.20;74.20;;;;;;7386101;19;20278;-59
2022/06/27 02:49:43;;;;;;;3.58;2.15;;;17.30;74.70;;;;;;7362245;19;20006;-60
2022/06/27 02:52:19;;;;;;;5.47;2.13;;;17.20;74.50;;;;;;7363132;19;20014;-60
2022/06/27 02:54:56;;;;;;;4.18;2.20;;;17.20;74.60;;;;;;7360400;19;20010;-60
2022/06/27 02:57:35;;;;;;;3.88;2.05;;;17.20;75.00;;;;;;7363881;19;20010;-60
2022/06/27 03:00:08;;;;;;;3.58;2.00;;;17.20;74.50;;;;;;7363771;19;20035;-60
2022/06/27 03:02:39;;;;;;;6.60;1.95;;;17.20;74.30;;;;;;7362934;19;20074;-60
2022/06/27 03:05:09;;;;;;;3.85;2.03;;;17.20;75.00;;;;;;7382664;19;20081;-60
2022/06/27 03:07:40;;;;;;;3.40;2.03;;;17.20;75.10;;;;;;7364082;19;20017;-60
2022/06/27 03:10:14;;;;;;;2.85;1.90;;;17.10;73.40;;;;;;7362041;19;20040;-60
2022/06/27 03:12:44;;;;;;;4.43;1.85;;;17.00;74.30;;;;;;7362213;19;20016;-59
2022/06/27 03:15:14;;;;;;;5.63;2.25;;;17.10;75.00;;;;;;7361735;19;20013;-61
2022/06/27 03:17:44;;;;;;;3.85;1.73;;;17.20;75.60;;;;;;7362105;19;20025;-60
2022/06/27 03:20:14;;;;;;;2.67;1.70;;;17.10;74.90;;;;;;7384370;19;20019;-60
2022/06/27 03:22:44;;;;;;;3.90;1.80;;;17.20;75.40;;;;;;7361732;19;20006;-60
2022/06/27 03:25:16;;;;;;;4.15;2.33;;;17.20;75.80;;;;;;7360943;19;20017;-60
2022/06/27 03:27:46;;;;;;;8.60;2.85;;;17.10;74.50;;;;;;7363525;19;20346;-58
2022/06/27 03:30:16;;;;;;;3.45;2.50;;;17.20;75.10;;;;;;7361934;19;20017;-60
2022/06/27 03:32:46;;;;;;;6.22;2.78;;;17.10;74.00;;;;;;7359882;19;20461;-60
2022/06/27 03:35:16;;;;;;;3.58;2.50;;;17.10;74.90;;;;;;7381825;19;20013;-61
2022/06/27 03:37:46;;;;;;;5.88;2.55;;;17.20;74.20;;;;;;7360847;19;20078;-60
2022/06/27 03:40:18;;;;;;;3.88;2.58;;;17.20;72.80;;;;;;7361816;19;20030;-61
2022/06/27 03:42:51;;;;;;;3.30;2.53;;;17.20;73.30;;;;;;7361002;19;20604;-60
2022/06/27 03:45:21;;;;;;;3.70;2.65;;;17.20;72.50;;;;;;7360944;19;20017;-60
2022/06/27 03:47:51;;;;;;;4.45;2.72;;;17.20;71.20;;;;;;7362514;19;20019;-60
2022/06/27 03:50:20;;;;;;;3.97;2.35;;;17.30;72.20;;;;;;7383260;19;20016;-60
2022/06/27 03:52:54;;;;;;;3.70;1.98;;;17.40;72.70;;;;;;7361075;19;20019;-60
2022/06/27 03:55:27;;;;;;;2.92;2.00;;;17.30;70.10;;;;;;7359241;19;20010;-60
2022/06/27 03:57:59;;;;;;;3.05;1.98;;;17.40;70.60;;;;;;7361013;19;20018;-60
2022/06/27 04:00:32;;;;;;;3.17;1.95;;;17.50;69.90;;;;;;7361302;19;20006;-60
2022/06/27 04:03:02;;;;;;;3.00;1.90;;;17.60;67.50;;;;;;7360372;19;20010;-60
2022/06/27 04:05:32;;;;;;;4.28;1.90;;;17.70;67.10;;;;;;7359543;19;20014;-60
2022/06/27 04:08:02;;;;;;;4.82;1.70;;;17.60;67.30;;;;;;7384436;19;20798;-59
2022/06/27 04:10:34;;;;;;;5.18;1.90;;;17.50;65.90;;;;;;7360685;19;20615;-59
2022/06/27 04:13:04;;;;;;;3.60;1.95;;;17.50;68.70;;;;;;7359921;19;20481;-59
2022/06/27 04:15:34;;;;;;;5.07;2.40;;;17.40;69.20;;;;;;7359995;19;20029;-59
2022/06/27 04:18:04;;;;;;;3.15;2.55;;;17.50;70.80;;;;;;7361696;19;20015;-60
2022/06/27 04:20:34;;;;;;;7.28;2.22;;;17.40;71.90;;;;;;7360315;19;20018;-59
2022/06/27 04:23:03;;;;;;;4.43;2.78;;;17.50;72.50;;;;;;7381753;19;20021;-59
2022/06/27 04:25:36;;;;;;;3.33;2.55;;;17.50;72.80;;;;;;7359680;19;20019;-59
2022/06/27 04:28:09;;;;;;;4.07;2.40;;;17.50;72.60;;;;;;7361522;19;20077;-59
2022/06/27 04:30:39;;;;;;;5.30;2.33;;;17.50;70.90;;;;;;7361106;19;20462;-59
2022/06/27 04:33:10;;;;;;;3.88;2.78;;;17.50;71.20;;;;;;7358573;19;20045;-60
2022/06/27 04:35:40;;;;;;;4.18;3.00;;;17.50;71.50;;;;;;7360425;19;20018;-60
2022/06/27 04:38:10;;;;;;;4.15;2.70;;;17.50;70.40;;;;;;7381435;19;20015;-60
2022/06/27 04:40:43;;;;;;;4.65;2.78;;;17.50;71.70;;;;;;7359640;19;20014;-59
2022/06/27 04:43:13;;;;;;;5.50;2.70;;;17.70;71.80;;;;;;7358442;19;20031;-59
2022/06/27 04:45:44;;;;;;;4.60;2.55;;;17.60;71.50;;;;;;7359695;19;20445;-59
2022/06/27 04:48:14;;;;;;;4.43;2.90;;;17.70;72.90;;;;;;7361276;19;20021;-58
2022/06/27 04:50:44;;;;;;;3.70;2.83;;;17.70;72.50;;;;;;7359263;19;20015;-61
2022/06/27 04:53:13;;;;;;;5.75;2.90;;;17.70;68.90;;;;;;7379814;19;20017;-59
2022/06/27 04:55:46;;;;;;;6.15;3.50;;;17.90;69.70;;;;;;7359141;19;20021;-59
2022/06/27 04:58:17;;;;;;;6.68;3.42;;;18.10;67.70;;;;;;7359651;19;20015;-59
2022/06/27 05:00:47;;;;;;;7.90;3.13;;;18.20;61.40;;;;;;7359247;19;20014;-59
2022/06/27 05:03:22;;;;;;;5.75;2.85;;;18.60;59.90;;;;;;7357189;19;20015;-58
2022/06/27 05:05:52;;;;;;;7.60;2.22;;;18.70;55.80;;;;;;7360869;19;20052;-59
2022/06/27 05:08:22;;;;;;;4.03;2.65;;;18.40;54.10;;;;;;7383335;19;20026;-61
2022/06/27 05:10:54;;;;;;;4.95;2.40;;;18.60;59.00;;;;;;7358914;19;20467;-59
2022/06/27 05:13:24;;;;;;;4.45;2.83;;;18.90;59.20;;;;;;7356432;19;20098;-59
2022/06/27 05:15:54;;;;;;;4.53;3.08;;;18.90;52.10;;;;;;7359776;19;20124;-59
2022/06/27 05:18:24;;;;;;;5.75;2.80;;;19.40;50.90;;;;;;7360726;19;20021;-60
2022/06/27 05:20:54;;;;;;;4.43;2.60;;;20.10;36.60;;;;;;7357659;19;20125;-60
2022/06/27 05:23:24;;;;;;;3.95;2.75;;;19.40;46.40;;;;;;7377405;19;20015;-60
2022/06/27 05:25:57;;;;;;;4.25;2.60;;;18.60;51.30;;;;;;7356733;19;20007;-59
2022/06/27 05:28:26;;;;;;;6.95;3.15;;;18.20;57.00;;;;;;7359801;19;20019;-59
2022/06/27 05:30:56;;;;;;;5.88;3.10;;;18.20;57.40;;;;;;7358545;19;20011;-59
2022/06/27 05:33:26;;;;;;;6.43;3.40;;;18.30;61.20;;;;;;7354885;19;20029;-60
2022/06/27 05:35:56;;;;;;;6.30;3.08;;;18.40;62.70;;;;;;7356638;19;20027;-60
2022/06/27 05:38:26;;;;;;;4.50;2.50;;;18.70;60.80;;;;;;7365302;19;20025;-61
2022/06/27 05:40:59;;;;;;;5.38;2.35;;;18.80;55.30;;;;;;7378511;19;20474;-61
2022/06/27 05:43:30;;;;;;;3.45;2.13;;;18.80;45.70;;;;;;7354647;19;20007;-59
2022/06/27 05:46:00;;;;;;;3.70;1.67;;;18.50;57.00;;;;;;7357928;19;20014;-59
2022/06/27 05:48:31;;;;;;;3.50;1.52;;;18.40;55.70;;;;;;7359660;19;20078;-60
2022/06/27 05:51:02;;;;;;;2.65;1.35;;;18.30;54.80;;;;;;7357128;19;20014;-60
2022/06/27 05:53:32;;;;;;;3.33;1.90;;;18.50;56.60;;;;;;7362458;19;20040;-59
2022/06/27 05:56:05;;;;;;;4.25;1.55;;;18.60;55.50;;;;;;7385697;19;20028;-61
2022/06/27 05:58:35;;;;;;;4.05;1.30;;;19.10;52.50;;;;;;7364728;19;20045;-60
2022/06/27 06:01:06;;;;;;;3.40;1.60;;;19.30;34.50;;;;;;7364402;19;20010;-60
2022/06/27 06:03:37;;;;;;;3.95;1.48;;;19.20;50.10;;;;;;7361130;19;20595;-60
2022/06/27 06:06:07;;;;;;;3.65;1.45;;;19.40;49.60;;;;;;7364632;19;20018;-60
2022/06/27 06:08:39;;;;;;;4.00;1.35;;;18.40;44.40;;;;;;7365694;19;20030;-60
2022/06/27 06:11:12;;;;;;;6.07;1.52;;;18.30;48.60;;;;;;7384591;19;20014;-60
2022/06/27 06:13:43;;;;;;;2.97;1.15;;;18.50;49.60;;;;;;7361610;19;20298;-60
2022/06/27 06:16:16;;;;;;;2.67;1.15;;;18.60;52.90;;;;;;7363771;19;20094;-59
2022/06/27 06:18:49;;;;;;;3.45;1.33;;;18.30;53.80;;;;;;7363563;19;20779;-59
2022/06/27 06:21:19;;;;;;;3.25;1.40;;;18.20;55.40;;;;;;7362492;19;20019;-61
2022/06/27 06:23:49;;;;;;;3.25;1.30;;;18.10;55.30;;;;;;7360440;19;20407;-59
2022/06/27 06:26:22;;;;;;;2.38;1.45;;;18.30;56.70;;;;;;7385683;19;20010;-58
2022/06/27 06:28:53;;;;;;;3.88;1.48;;;18.20;54.30;;;;;;7365313;19;20006;-59
2022/06/27 06:31:24;;;;;;;4.05;1.67;;;18.30;56.70;;;;;;7363052;19;20030;-60
2022/06/27 06:33:56;;;;;;;3.25;1.73;;;18.40;55.00;;;;;;7358092;19;20010;-59
2022/06/27 06:36:26;;;;;;;3.28;1.58;;;18.40;54.00;;;;;;7364494;19;20031;-59
2022/06/27 06:38:57;;;;;;;3.10;1.70;;;18.50;56.20;;;;;;7364218;19;20013;-59
2022/06/27 06:41:30;;;;;;;4.18;1.50;;;19.40;46.70;;;;;;7364055;19;20010;-60
2022/06/27 06:44:01;;;;;;;2.65;1.73;;;18.70;42.10;;;;;;7381556;19;20028;-60
2022/06/27 06:46:31;;;;;;;2.22;1.45;;;18.80;49.10;;;;;;7362656;19;20087;-59
2022/06/27 06:49:06;;;;;;;2.47;1.50;;;18.80;50.40;;;;;;7364381;19;20029;-59
2022/06/27 06:51:39;;;;;;;4.60;1.88;;;18.80;50.30;;;;;;7359947;19;20441;-60
2022/06/27 06:54:12;;;;;;;2.70;1.50;;;18.80;49.10;;;;;;7364214;19;20014;-60
2022/06/27 06:56:45;;;;;;;3.17;1.70;;;18.50;49.40;;;;;;7363874;19;20434;-60
2022/06/27 06:59:15;;;;;;;2.00;1.40;;;18.40;51.30;;;;;;7384662;19;20097;-60
2022/06/27 07:01:46;;;;;;;3.67;1.77;;;18.60;53.20;;;;;;7361714;19;20007;-60
2022/06/27 07:04:16;;;;;;;2.17;1.98;;;18.60;53.50;;;;;;7360161;19;20014;-60
2022/06/27 07:06:47;;;;;;;3.03;1.95;;;18.50;54.30;;;;;;7363393;19;20010;-60
2022/06/27 07:09:17;;;;;;;5.80;2.10;;;18.60;52.10;;;;;;7363993;19;20189;-60
2022/06/27 07:11:50;;;;;;;3.55;2.03;;;18.60;52.50;;;;;;7359594;19;20010;-59
2022/06/27 07:14:20;;;;;;;3.13;2.33;;;18.50;48.80;;;;;;7381715;19;20078;-60
2022/06/27 07:16:51;;;;;;;2.65;2.28;;;18.60;52.90;;;;;;7361232;19;20014;-60
2022/06/27 07:19:21;;;;;;;4.80;2.65;;;18.70;52.00;;;;;;7360340;19;20696;-60
2022/06/27 07:21:51;;;;;;;2.92;2.08;;;18.60;47.90;;;;;;7359100;19;20033;-59
2022/06/27 07:24:21;;;;;;;3.45;2.17;;;18.70;47.70;;;;;;7358349;19;20014;-60
2022/06/27 07:26:53;;;;;;;3.58;2.55;;;18.70;49.00;;;;;;7361400;19;20018;-60
2022/06/27 07:29:23;;;;;;;2.42;1.90;;;18.50;51.30;;;;;;7385710;19;20803;-60
2022/06/27 07:31:53;;;;;;;3.78;1.90;;;18.60;51.20;;;;;;7357856;19;20019;-60
2022/06/27 07:34:23;;;;;;;3.03;1.85;;;18.70;51.50;;;;;;7359887;19;20022;-61
2022/06/27 07:36:59;;;;;;;2.35;2.00;;;18.60;52.10;;;;;;7362201;19;20086;-60
2022/06/27 07:39:29;;;;;;;2.60;2.03;;;18.70;51.20;;;;;;7362849;19;20010;-60
2022/06/27 07:42:01;;;;;;;2.72;2.40;;;18.70;49.00;;;;;;7357547;19;20006;-59
2022/06/27 07:44:34;;;;;;;3.08;2.75;;;18.50;48.80;;;;;;7358214;19;20035;-60
2022/06/27 07:47:04;;;;;;;3.58;2.42;;;18.60;48.90;;;;;;7380546;19;20022;-59
2022/06/27 07:49:34;;;;;;;11.45;2.75;;;18.70;49.10;;;;;;7361477;19;20015;-59
2022/06/27 07:52:05;;;;;;;3.42;2.40;;;19.00;49.20;;;;;;7356181;19;20050;-59
2022/06/27 07:54:35;;;;;;;3.42;2.28;;;19.20;49.40;;;;;;7356913;19;20489;-60
2022/06/27 07:57:08;;;;;;;2.40;2.20;;;19.20;45.60;;;;;;7360260;19;20049;-59
2022/06/27 07:59:38;;;;;;;2.25;2.05;;;19.00;44.60;;;;;;7358916;19;20014;-60
2022/06/27 08:02:09;;;;;;;3.53;2.30;;;18.80;46.00;;;;;;7378433;19;20058;-60
2022/06/27 08:04:41;;;;;;;6.53;3.63;;;18.80;47.50;;;;;;7357406;19;20036;-60
2022/06/27 08:07:11;;;;;;;5.47;2.42;;;19.00;49.20;;;;;;7359628;19;20476;-60
2022/06/27 08:09:42;;;;;;;2.80;2.28;;;19.00;46.60;;;;;;7361196;19;20034;-60
2022/06/27 08:12:14;;;;;;;4.05;2.10;;;18.80;47.60;;;;;;7356609;19;20010;-61
2022/06/27 08:14:44;;;;;;;2.90;2.28;;;19.00;49.30;;;;;;7355418;19;20035;-61
2022/06/27 08:17:15;;;;;;;3.03;2.30;;;19.20;46.50;;;;;;7379939;19;20674;-61
2022/06/27 08:19:44;;;;;;;2.78;2.50;;;19.10;41.60;;;;;;7359649;19;20014;-60
2022/06/27 08:22:14;;;;;;;2.65;2.45;;;19.10;43.50;;;;;;7356227;19;20095;-60
2022/06/27 08:24:46;;;;;;;3.53;2.30;;;19.30;44.40;;;;;;7356727;19;20013;-60
2022/06/27 08:27:18;;;;;;;3.38;2.42;;;19.40;39.80;;;;;;7361081;19;20014;-59
2022/06/27 08:29:48;;;;;;;2.30;2.10;;;19.70;37.30;;;;;;7361139;19;20022;-60
2022/06/27 08:32:18;;;;;;;8.93;4.10;;;19.40;38.70;;;;;;7375136;19;20014;-60
2022/06/27 08:34:51;;;;;;;4.63;3.70;;;19.40;35.90;;;;;;7356827;19;20011;-60
2022/06/27 08:37:23;;;;;;;3.80;2.88;;;19.40;41.10;;;;;;7360257;19;20575;-59
2022/06/27 08:39:53;;;;;;;3.83;2.45;;;19.20;44.50;;;;;;7359075;19;20014;-60
2022/06/27 08:42:26;;;;;;;2.45;2.25;;;19.10;45.10;;;;;;7356817;19;20026;-60
2022/06/27 08:44:57;;;;;;;5.22;2.33;;;19.10;44.90;;;;;;7357204;19;20091;-60
2022/06/27 08:47:27;;;;;;;4.70;2.80;;;19.00;45.00;;;;;;7359138;19;20031;-60
2022/06/27 08:49:57;;;;;;;2.20;2.00;;;19.10;47.40;;;;;;7377815;19;20019;-60
2022/06/27 08:52:28;;;;;;;2.92;2.72;;;19.20;45.20;;;;;;7355230;19;20011;-60
2022/06/27 08:55:01;;;;;;;4.10;2.53;;;19.30;44.50;;;;;;7357023;19;20030;-60
2022/06/27 08:57:33;;;;;;;4.60;2.28;;;19.50;43.80;;;;;;7360776;19;20080;-60
2022/06/27 09:00:06;;;;;;;3.28;2.15;;;19.50;43.50;;;;;;7358005;19;20015;-60
2022/06/27 09:02:42;;;;;;;2.60;2.25;;;19.50;41.30;;;;;;7357481;19;20098;-59
2022/06/27 09:05:22;;;;;;;2.30;2.10;;;19.40;41.50;;;;;;7378192;19;20501;-59
2022/06/27 09:07:53;;;;;;;3.97;2.58;;;19.80;38.90;;;;;;7359152;19;20621;-59
2022/06/27 09:10:31;;;;;;;2.25;1.95;;;19.80;37.60;;;;;;7355651;19;20021;-60
2022/06/27 09:13:11;;;;;;;2.17;1.85;;;19.70;36.40;;;;;;7358432;19;20015;-60
2022/06/27 09:15:52;;;;;;;2.80;2.10;;;19.50;38.10;;;;;;7357972;19;20051;-60
2022/06/27 09:18:23;;;;;;;2.35;2.13;;;19.50;43.40;;;;;;7360283;19;20491;-60
2022/06/27 09:20:58;;;;;;;3.50;2.30;;;19.60;40.80;;;;;;7356535;19;20085;-60
2022/06/27 09:23:37;;;;;;;2.53;1.70;;;19.60;40.20;;;;;;7356036;19;20025;-61
2022/06/27 09:26:09;;;;;;;2.28;2.08;;;19.80;39.00;;;;;;7385435;19;20019;-60
2022/06/27 09:28:47;;;;;;;2.38;2.10;;;19.80;38.00;;;;;;7366999;19;20018;-60
2022/06/27 09:31:35;;;;;;;3.90;2.05;;;19.30;37.40;;;;;;7363649;19;20012;-60
2022/06/27 09:34:14;;;;;;;4.38;2.40;;;19.50;40.00;;;;;;7363695;19;20018;-61
2022/06/27 09:36:47;;;;;;;4.45;2.30;;;19.80;37.20;;;;;;7366508;19;20111;-61
2022/06/27 09:39:24;;;;;;;3.10;2.72;;;20.00;33.20;;;;;;7367094;19;20010;-59
2022/06/27 09:41:58;;;;;;;3.60;2.33;;;20.00;31.30;;;;;;7362335;19;20054;-59
2022/06/27 09:44:35;;;;;;;4.00;2.42;;;19.90;33.70;;;;;;7363762;19;20043;-60
2022/06/27 09:47:09;;;;;;;2.60;2.40;;;20.20;30.70;;;;;;7386882;19;20526;-60
2022/06/27 09:49:41;;;;;;;2.95;2.67;;;19.90;29.90;;;;;;7365197;19;20044;-60
2022/06/27 09:52:12;;;;;;;3.78;2.80;;;20.00;28.90;;;;;;7358390;19;20676;-60
2022/06/27 09:54:44;;;;;;;3.55;3.25;;;20.20;26.30;;;;;;7363200;19;20011;-62
2022/06/27 09:57:16;;;;;;;2.95;2.70;;;20.50;25.20;;;;;;7363336;19;20014;-62
2022/06/27 09:59:50;;;;;;;3.53;2.97;;;21.10;21.00;;;;;;7365400;19;20083;-60
2022/06/27 10:02:22;;;;;;;3.15;2.85;;;21.20;17.60;;;;;;7383536;19;20033;-61
2022/06/27 10:04:52;;;;;;;3.20;2.78;;;21.30;18.20;;;;;;7362390;19;20006;-60
2022/06/27 10:07:25;;;;;;;3.95;2.83;;;21.10;19.80;;;;;;7362156;19;20010;-59
2022/06/27 10:09:56;;;;;;;4.30;2.95;;;21.70;18.10;;;;;;7364784;19;20451;-61
2022/06/27 10:12:31;;;;;;;6.20;3.05;;;21.50;14.40;;;;;;7360832;19;20014;-61
2022/06/27 10:15:24;;;;;;;3.95;3.05;;;21.60;15.70;;;;;;7361349;19;20006;-61
2022/06/27 10:17:57;;;;;;;4.05;2.88;;;21.60;14.30;;;;;;7365153;19;20021;-61
2022/06/27 10:20:36;;;;;;;3.65;2.90;;;21.30;13.40;;;;;;7363961;19;20589;-61
2022/06/27 10:23:25;;;;;;;4.45;2.40;;;21.50;13.30;;;;;;7385482;19;20014;-61
2022/06/27 10:25:56;;;;;;;2.95;2.20;;;21.60;12.10;;;;;;7363785;19;20113;-61
2022/06/27 10:28:27;;;;;;;2.35;1.63;;;21.40;10.00;;;;;;7364601;19;20489;-61
2022/06/27 10:31:01;;;;;;;2.40;1.70;;;21.20;9.20;;;;;;7360603;19;20892;-62
2022/06/27 10:33:41;;;;;;;2.08;1.88;;;21.60;10.20;;;;;;7359225;19;20122;-60
2022/06/27 10:36:14;;;;;;;2.22;2.03;;;21.50;11.30;;;;;;7362944;19;20017;-60
2022/06/27 10:39:01;;;;;;;2.15;1.90;;;21.40;8.60;;;;;;7362811;19;20101;-62
2022/06/27 10:41:42;;;;;;;4.40;2.05;;;20.70;12.30;;;;;;7360022;19;20018;-61
2022/06/27 10:44:32;;;;;;;2.88;2.00;;;21.00;12.10;;;;;;7382209;19;20015;-61
2022/06/27 10:47:05;;;;;;;4.82;2.03;;;20.90;12.60;;;;;;7362438;19;20014;-61
2022/06/27 10:49:35;;;;;;;2.55;2.10;;;21.10;11.60;;;;;;7364119;19;20094;-60
2022/06/27 10:52:35;;;;;;;2.20;2.00;;;21.00;10.30;;;;;;7359674;19;20370;-62
2022/06/27 10:55:23;;;;;;;7.10;1.90;;;21.40;9.20;;;;;;7362243;19;20018;-61
2022/06/27 10:57:54;;;;;;;2.80;2.30;;;21.50;10.50;;;;;;7363659;19;20011;-61
2022/06/27 11:00:41;;;;;;;2.28;2.08;;;21.60;9.30;;;;;;7358404;19;20016;-61
2022/06/27 11:03:23;;;;;;;2.20;2.00;;;21.70;8.30;;;;;;7360343;19;20011;-61
2022/06/27 11:06:04;;;;;;;5.45;1.85;;;21.50;9.60;;;;;;7362869;19;20010;-61
2022/06/27 11:08:36;;;;;;;2.70;2.10;;;21.60;8.20;;;;;;7363652;19;20078;-61
2022/06/27 11:11:08;;;;;;;2.60;2.05;;;21.60;6.80;;;;;;7381640;19;20078;-62
2022/06/27 11:13:43;;;;;;;1.75;1.65;;;22.10;8.00;;;;;;7358185;19;20010;-62
2022/06/27 11:16:16;;;;;;;2.33;2.00;;;23.10;2.30;;;;;;7361522;19;20016;-62
2022/06/27 11:18:52;;;;;;;3.92;1.90;;;22.60;1.50;;;;;;7363489;19;20621;-62
2022/06/27 11:21:37;;;;;;;3.08;2.10;;;22.40;2.50;;;;;;7362208;19;20010;-61
2022/06/27 11:24:11;;;;;;;3.05;1.70;;;22.40;4.00;;;;;;7359249;19;20125;-61
2022/06/27 11:26:49;;;;;;;2.15;1.40;;;22.20;4.00;;;;;;7361393;19;20006;-62
2022/06/27 11:32:06;;;;;;;2.13;1.63;;;21.90;2.50;;;;;;7358479;19;20011;-62
2022/06/27 11:34:45;;;;;;;3.63;1.70;;;22.50;1.70;;;;;;7362071;19;20007;-61
2022/06/27 11:37:16;;;;;;;2.50;1.65;;;22.60;1.00;;;;;;7361545;19;20010;-60
2022/06/27 11:40:00;;;;;;;5.03;2.67;;;22.30;1.00;;;;;;7361935;19;20010;-62
2022/06/27 11:42:31;;;;;;;2.20;1.70;;;21.90;1.70;;;;;;7356670;19;20048;-61
2022/06/27 11:45:07;;;;;;;3.15;1.85;;;22.20;2.50;;;;;;7362807;19;20022;-61
2022/06/27 11:47:39;;;;;;;5.18;2.00;;;22.20;3.00;;;;;;7360744;19;20010;-61
2022/06/27 11:50:14;;;;;;;3.70;1.90;;;22.00;2.60;;;;;;7381917;19;20082;-61
2022/06/27 11:52:45;;;;;;;4.25;2.33;;;21.90;3.70;;;;;;7357233;19;20017;-62
2022/06/27 11:55:17;;;;;;;2.80;2.05;;;21.60;2.10;;;;;;7361734;19;20101;-61
2022/06/27 11:57:49;;;;;;;2.78;2.28;;;21.70;3.30;;;;;;7362059;19;20011;-62
2022/06/27 12:00:22;;;;;;;3.15;2.67;;;21.40;6.60;;;;;;7360989;19;20518;-61
2022/06/27 12:02:54;;;;;;;3.20;2.53;;;21.50;5.10;;;;;;7356133;19;20010;-60
2022/06/27 12:05:28;;;;;;;2.75;2.53;;;21.50;5.40;;;;;;7383749;19;20010;-62
2022/06/27 12:08:03;;;;;;;3.80;2.60;;;21.40;6.70;;;;;;7363286;19;20014;-60
2022/06/27 12:10:38;;;;;;;5.22;2.65;;;21.80;5.00;;;;;;7359928;19;20078;-61
2022/06/27 12:13:09;;;;;;;5.88;2.80;;;21.20;4.00;;;;;;7359254;19;20070;-61
2022/06/27 12:15:40;;;;;;;3.90;2.80;;;20.90;4.80;;;;;;7359685;19;20470;-62
2022/06/27 12:18:12;;;;;;;3.90;2.63;;;21.10;5.90;;;;;;7361449;19;20117;-62
2022/06/27 12:20:46;;;;;;;5.80;3.00;;;21.40;4.40;;;;;;7358950;19;20014;-60
2022/06/27 12:23:16;;;;;;;3.15;2.85;;;21.70;3.80;;;;;;7377355;19;20021;-62
2022/06/27 12:25:46;;;;;;;3.72;2.60;;;21.10;5.00;;;;;;7358658;19;20010;-61
2022/06/27 12:28:16;;;;;;;3.03;2.70;;;21.70;5.60;;;;;;7360641;19;20679;-61
2022/06/27 12:30:45;;;;;;;4.13;2.30;;;21.40;4.30;;;;;;7360265;19;20066;-62
2022/06/27 12:33:15;;;;;;;5.78;2.63;;;21.60;4.40;;;;;;7358507;19;20006;-61
2022/06/27 12:35:48;;;;;;;4.18;2.70;;;21.60;3.00;;;;;;7360263;19;20549;-61
2022/06/27 12:38:18;;;;;;;3.03;2.53;;;21.70;3.50;;;;;;7382690;19;20014;-61
2022/06/27 12:40:48;;;;;;;4.57;1.65;;;21.60;2.70;;;;;;7358521;19;20015;-60
2022/06/27 12:43:18;;;;;;;2.75;1.80;;;21.50;1.80;;;;;;7355922;19;20010;-61
2022/06/27 12:45:52;;;;;;;2.28;1.80;;;21.20;3.40;;;;;;7359972;19;20443;-61
2022/06/27 12:48:22;;;;;;;;;;;21.30;3.20;;;;;;7362090;19;20481;-60
2022/06/27 12:50:54;;;;;;;3.10;2.10;;;21.40;2.80;;;;;;7358468;19;19998;-60
2022/06/27 12:53:24;;;;;;;2.33;1.80;;;21.90;2.20;;;;;;7378029;19;20015;-61
2022/06/27 12:55:54;;;;;;;2.30;2.10;;;21.20;1.00;;;;;;7358391;19;20040;-62
2022/06/27 12:58:24;;;;;;;3.20;1.73;;;21.30;2.60;;;;;;7359821;19;20018;-61
2022/06/27 13:00:54;;;;;;;4.32;2.03;;;21.20;3.60;;;;;;7363521;19;20042;-61
2022/06/27 13:03:24;;;;;;;2.92;1.80;;;21.20;2.30;;;;;;7362420;19;20383;-62
2022/06/27 13:05:57;;;;;;;3.47;1.73;;;21.20;1.00;;;;;;7366908;19;20017;-60
2022/06/27 13:08:27;;;;;;;2.08;1.60;;;21.30;2.70;;;;;;7368901;19;20010;-62
2022/06/27 13:10:57;;;;;;;2.47;1.40;;;21.60;1.00;;;;;;7385676;19;20015;-62
2022/06/27 13:13:27;;;;;;;2.22;1.67;;;21.20;1.00;;;;;;7359680;19;20025;-61
2022/06/27 13:15:57;;;;;;;2.80;1.42;;;21.30;1.00;;;;;;7363465;19;20517;-61
2022/06/27 13:18:27;;;;;;;2.10;1.58;;;21.30;1.00;;;;;;7364079;19;20017;-62